Terminal Aerodrome Forecast
Issued by NWS

Home | Current Version | Previous Version | Text Only | Print | Product List | Glossary On
Versions: 1 2 3 4 5 6 7 8 9 10 11 12 13 14 15 16
000
FTUS46 KSEW 221700
TAFBFI
TAF
KBFI 221720Z 2218/2318 VRB03KT P6SM SCT030 BKN080
     FM222100 29006KT P6SM BKN045 BKN100
     FM230600 VRB03KT P6SM BKN040 OVC070
     FM231700 20008KT P6SM -SHRA BKN015 OVC030=

USA.gov is the U.S. government's official web portal to all federal, state and local government web resources and services.